Time;durP1;ratioP1;P1;durP2;ratioP2;P2;SDS_P1;SDS_P2;PMS_P1;PMS_P2;Temp;Humidity;BMP_temperature;BMP_pressure;BME280_temperature;BME280_humidity;BME280_pressure;Samples;Min_cycle;Max_cycle;Signal;HPM_P1;HPM_P2
2021/01/15 00:01:48;;;;;;;16.67;10.98;;;;;;;0.10;97.52;101896.69;5028673;28;20033;-90
2021/01/15 00:04:16;;;;;;;18.52;12.93;;;;;;;0.13;98.85;101901.81;5031207;28;20272;-91
2021/01/15 00:06:43;;;;;;;16.45;12.25;;;;;;;0.07;97.26;101892.41;5027382;28;20172;-92
2021/01/15 00:09:09;;;;;;;17.50;11.90;;;;;;;0.08;98.52;101896.72;5024166;28;20053;-92
2021/01/15 00:11:34;;;;;;;22.23;12.68;;;;;;;0.11;98.66;101901.03;5030447;28;20042;-92
2021/01/15 00:14:03;;;;;;;15.45;11.25;;;;;;;0.03;97.13;101898.75;5032421;28;20033;-91
2021/01/15 00:16:31;;;;;;;19.17;12.68;;;;;;;0.08;99.34;101899.38;5033348;28;20041;-91
2021/01/15 00:19:00;;;;;;;17.48;12.27;;;;;;;0.10;98.88;101908.09;5018613;28;20089;-91
2021/01/15 00:21:28;;;;;;;18.20;11.90;;;;;;;0.06;98.72;101903.88;5025526;28;20048;-90
2021/01/15 00:23:59;;;;;;;17.67;12.40;;;;;;;0.07;99.51;101902.09;5026050;28;20036;-91
2021/01/15 00:26:29;;;;;;;18.83;12.75;;;;;;;0.04;99.17;101908.38;5028824;28;20041;-91
2021/01/15 00:28:55;;;;;;;17.92;12.40;;;;;;;-0.01;98.64;101908.56;5030020;28;20762;-92
2021/01/15 00:31:32;;;;;;;17.55;12.40;;;;;;;0.01;98.38;101911.16;5020526;28;20025;-92
2021/01/15 00:34:07;;;;;;;19.33;13.05;;;;;;;0.03;99.59;101909.31;5023634;28;20045;-91
2021/01/15 00:36:33;;;;;;;20.35;12.90;;;;;;;0.06;100.00;101909.16;5012790;28;20107;-92
2021/01/15 00:38:59;;;;;;;18.40;13.32;;;;;;;0.05;100.00;101911.88;5026825;28;20037;-91
2021/01/15 00:41:24;;;;;;;20.40;14.10;;;;;;;0.02;100.00;101915.50;5031266;28;20568;-90
2021/01/15 00:43:50;;;;;;;19.50;13.65;;;;;;;0.06;100.00;101919.72;5056561;28;20034;-91
2021/01/15 00:46:31;;;;;;;19.38;12.77;;;;;;;0.01;99.93;101924.34;5025870;28;20585;-90
2021/01/15 00:49:07;;;;;;;19.15;13.10;;;;;;;-0.01;100.00;101928.81;5029419;28;20044;-90
2021/01/15 00:51:36;;;;;;;19.95;14.20;;;;;;;0.03;100.00;101921.63;5032077;28;20103;-90
2021/01/15 00:54:05;;;;;;;19.13;12.88;;;;;;;0.01;100.00;101920.84;5008700;28;20037;-91
2021/01/15 00:56:30;;;;;;;17.92;13.55;;;;;;;-0.01;100.00;101921.75;5033072;28;20046;-90
2021/01/15 00:58:57;;;;;;;19.98;13.82;;;;;;;-0.06;100.00;101925.53;5028225;28;20496;-90
2021/01/15 01:01:24;;;;;;;19.70;13.00;;;;;;;-0.06;100.00;101922.88;5025817;28;20437;-90
2021/01/15 01:03:51;;;;;;;22.75;14.98;;;;;;;-0.03;100.00;101928.03;5025494;28;20091;-90
2021/01/15 01:06:22;;;;;;;23.60;15.30;;;;;;;-0.03;100.00;101922.75;5038752;28;20033;-91
2021/01/15 01:08:49;;;;;;;20.02;14.57;;;;;;;0.01;100.00;101931.41;5025346;28;20132;-91
2021/01/15 01:11:18;;;;;;;20.50;14.40;;;;;;;-0.08;100.00;101927.41;5025359;28;20371;-91
2021/01/15 01:13:44;;;;;;;21.13;14.80;;;;;;;-0.02;100.00;101930.63;5016594;28;20041;-90
2021/01/15 01:16:13;;;;;;;20.52;14.43;;;;;;;-0.02;100.00;101929.75;5031576;28;20432;-90
2021/01/15 01:18:39;;;;;;;;;;;;;;;-0.06;100.00;101929.06;5028327;28;20041;-91
2021/01/15 01:21:07;;;;;;;19.33;13.93;;;;;;;-0.14;100.00;101933.81;5017086;28;19923;-90
2021/01/15 01:23:33;;;;;;;26.70;15.23;;;;;;;-0.08;100.00;101945.88;5043785;28;20049;-91
2021/01/15 01:25:59;;;;;;;21.77;14.43;;;;;;;-0.13;100.00;101939.94;5042124;28;20300;-91
2021/01/15 01:28:30;;;;;;;22.15;16.38;;;;;;;-0.06;100.00;101944.88;5032432;28;20041;-90
2021/01/15 01:30:56;;;;;;;20.52;13.90;;;;;;;-0.12;100.00;101941.63;5030101;28;20048;-90
2021/01/15 01:33:22;;;;;;;22.38;14.55;;;;;;;-0.05;100.00;101948.38;5017350;28;20740;-90
2021/01/15 01:35:48;;;;;;;22.38;16.02;;;;;;;-0.09;100.00;101950.28;5022734;28;20053;-90
2021/01/15 01:38:14;;;;;;;25.73;16.42;;;;;;;-0.05;100.00;101959.78;5028990;28;20037;-91
2021/01/15 01:40:40;;;;;;;23.42;14.73;;;;;;;-0.10;100.00;101953.00;5034651;28;20048;-91
2021/01/15 01:43:06;;;;;;;21.88;15.43;;;;;;;-0.14;100.00;101960.19;5026249;28;20045;-92
2021/01/15 01:45:32;;;;;;;22.75;15.70;;;;;;;-0.07;100.00;101960.78;5027521;28;20135;-91
2021/01/15 01:47:59;;;;;;;21.98;14.82;;;;;;;-0.04;100.00;101968.56;5025826;28;20064;-92
2021/01/15 01:50:26;;;;;;;23.98;15.93;;;;;;;-0.08;100.00;101966.97;5024562;28;20038;-90
2021/01/15 01:52:52;;;;;;;23.40;15.95;;;;;;;-0.05;100.00;101969.50;5026956;28;20041;-91
2021/01/15 01:55:22;;;;;;;22.73;16.35;;;;;;;-0.08;100.00;101972.25;5023434;28;20064;-90
2021/01/15 01:57:48;;;;;;;22.20;15.48;;;;;;;-0.07;100.00;101973.97;5024885;28;20052;-90
2021/01/15 02:00:15;;;;;;;26.50;16.48;;;;;;;-0.07;100.00;101979.25;5033704;28;20030;-91
2021/01/15 02:02:43;;;;;;;22.55;15.70;;;;;;;-0.10;100.00;101979.38;5027302;28;20033;-91
2021/01/15 02:05:09;;;;;;;22.50;16.30;;;;;;;-0.11;100.00;101989.09;5035367;28;20069;-90
2021/01/15 02:07:35;;;;;;;26.63;16.30;;;;;;;-0.14;100.00;101991.00;5025324;28;20072;-91
2021/01/15 02:10:06;;;;;;;24.52;18.08;;;;;;;-0.10;100.00;101989.94;5004961;28;20073;-90
2021/01/15 02:12:49;;;;;;;23.70;15.57;;;;;;;-0.09;100.00;101999.56;5019216;28;20052;-91
2021/01/15 02:15:20;;;;;;;25.65;17.20;;;;;;;-0.14;100.00;101993.66;5026254;28;20048;-91
2021/01/15 02:17:53;;;;;;;24.95;17.10;;;;;;;-0.16;100.00;101992.84;5034026;28;20041;-91
2021/01/15 02:20:30;;;;;;;24.58;17.20;;;;;;;-0.12;100.00;101994.41;5027092;28;20046;-90
2021/01/15 02:22:56;;;;;;;25.20;17.05;;;;;;;-0.18;100.00;101989.41;5029233;28;20041;-91
2021/01/15 02:25:27;;;;;;;26.40;17.15;;;;;;;-0.15;100.00;101998.03;5027447;28;20043;-91
2021/01/15 02:28:21;;;;;;;24.45;16.92;;;;;;;-0.16;100.00;102000.75;5022984;28;20478;-90
2021/01/15 02:31:03;;;;;;;24.77;17.00;;;;;;;-0.12;100.00;102003.19;5010737;28;20048;-90
2021/01/15 02:33:46;;;;;;;25.75;16.45;;;;;;;-0.20;100.00;101999.16;5035260;28;20156;-92
2021/01/15 02:36:21;;;;;;;23.60;17.00;;;;;;;-0.23;100.00;102010.72;5009737;28;20033;-91
2021/01/15 02:39:03;;;;;;;26.45;17.35;;;;;;;-0.24;100.00;102009.00;5028523;28;20043;-91
2021/01/15 02:41:31;;;;;;;25.92;17.90;;;;;;;-0.12;100.00;102002.31;5035417;28;20052;-91
2021/01/15 02:44:17;;;;;;;25.10;17.20;;;;;;;-0.21;100.00;102000.94;5043498;28;20048;-90
2021/01/15 02:46:56;;;;;;;26.00;18.58;;;;;;;-0.21;100.00;101997.44;5003705;28;20052;-91
2021/01/15 02:49:22;;;;;;;27.52;18.13;;;;;;;-0.18;100.00;102000.81;5011107;28;20048;-91
2021/01/15 02:51:48;;;;;;;28.90;18.35;;;;;;;-0.25;100.00;101999.38;5025026;28;20052;-91
2021/01/15 02:54:15;;;;;;;25.85;18.40;;;;;;;-0.18;100.00;102015.78;5015571;28;20486;-90
2021/01/15 02:56:41;;;;;;;27.42;19.02;;;;;;;-0.11;100.00;102019.91;5024619;28;20045;-91
2021/01/15 02:59:07;;;;;;;27.88;19.13;;;;;;;-0.15;100.00;102026.22;5016632;28;20041;-89
2021/01/15 03:01:47;;;;;;;28.02;18.95;;;;;;;-0.19;100.00;102038.69;5028694;28;20132;-91
2021/01/15 03:04:58;;;;;;;28.85;18.73;;;;;;;-0.21;100.00;102042.31;5043830;28;20034;-91
2021/01/15 03:07:26;;;;;;;29.90;18.77;;;;;;;-0.23;100.00;102042.38;5033311;28;20044;-91
2021/01/15 03:09:54;;;;;;;29.15;19.60;;;;;;;-0.21;100.00;102042.31;5032579;28;20080;-91
2021/01/15 03:12:24;;;;;;;30.85;20.42;;;;;;;-0.17;100.00;102050.03;5020938;28;20037;-91
2021/01/15 03:14:52;;;;;;;31.30;20.08;;;;;;;-0.20;100.00;102044.00;5042653;28;20552;-91
2021/01/15 03:17:23;;;;;;;30.73;19.58;;;;;;;-0.21;100.00;102039.66;5019834;28;20045;-92
2021/01/15 03:19:49;;;;;;;32.92;20.63;;;;;;;-0.15;100.00;102044.69;5030637;28;20053;-91
2021/01/15 03:22:18;;;;;;;30.83;20.70;;;;;;;-0.13;100.00;102045.47;5038086;28;20040;-91
2021/01/15 03:24:59;;;;;;;31.08;20.67;;;;;;;-0.21;100.00;102050.22;5029467;28;20041;-91
2021/01/15 03:27:41;;;;;;;33.92;21.75;;;;;;;-0.16;100.00;102049.09;4981771;28;20164;-90
2021/01/15 03:30:07;;;;;;;32.05;21.02;;;;;;;-0.13;100.00;102040.19;4991657;28;20042;-90
2021/01/15 03:32:35;;;;;;;34.35;22.10;;;;;;;-0.18;100.00;102050.09;4995174;28;20049;-89
2021/01/15 03:35:01;;;;;;;33.20;21.55;;;;;;;-0.10;100.00;102066.47;4994524;28;20673;-91
2021/01/15 03:37:26;;;;;;;34.05;21.73;;;;;;;-0.17;100.00;102063.22;5008003;28;20049;-91
2021/01/15 03:39:53;;;;;;;30.23;20.35;;;;;;;-0.19;100.00;102070.34;4990565;28;20132;-90
2021/01/15 03:42:24;;;;;;;34.60;22.45;;;;;;;-0.14;100.00;102073.66;5008335;28;20046;-91
2021/01/15 03:44:50;;;;;;;34.67;23.45;;;;;;;-0.16;100.00;102070.22;4969538;28;20038;-91
2021/01/15 03:47:23;;;;;;;36.15;23.08;;;;;;;-0.13;100.00;102069.22;4990164;28;20037;-93
2021/01/15 03:49:49;;;;;;;36.72;24.65;;;;;;;-0.16;100.00;102069.34;4989030;28;20065;-91
2021/01/15 03:52:16;;;;;;;37.55;24.02;;;;;;;-0.17;100.00;102073.78;5017589;28;20056;-90
2021/01/15 03:54:42;;;;;;;41.35;23.60;;;;;;;-0.20;100.00;102071.28;5026218;28;20045;-90
2021/01/15 03:57:07;;;;;;;35.33;22.95;;;;;;;-0.20;100.00;102070.38;5016147;28;20485;-90
2021/01/15 03:59:34;;;;;;;36.05;24.30;;;;;;;-0.22;100.00;102077.53;5018104;28;20041;-90
2021/01/15 04:02:05;;;;;;;39.67;25.77;;;;;;;-0.18;100.00;102072.03;5029487;28;20497;-90
2021/01/15 04:04:31;;;;;;;37.33;25.60;;;;;;;-0.18;100.00;102079.09;5026739;28;20126;-92
2021/01/15 04:06:59;;;;;;;38.40;24.27;;;;;;;-0.24;100.00;102080.22;5028001;28;20057;-92
2021/01/15 04:09:24;;;;;;;43.22;26.00;;;;;;;-0.27;100.00;102083.84;5043416;28;20553;-90
2021/01/15 04:11:51;;;;;;;36.92;24.67;;;;;;;-0.33;100.00;102085.88;5028539;28;20146;-90
2021/01/15 04:14:17;;;;;;;38.88;25.52;;;;;;;-0.32;100.00;102090.22;5034865;28;20041;-89
2021/01/15 04:16:53;;;;;;;42.90;26.45;;;;;;;-0.31;100.00;102090.16;5024953;28;20029;-92
2021/01/15 04:19:19;;;;;;;43.83;28.33;;;;;;;-0.33;100.00;102094.66;5025517;28;20041;-90
2021/01/15 04:21:44;;;;;;;41.03;27.45;;;;;;;-0.36;100.00;102104.47;5028797;28;20114;-90
2021/01/15 04:24:11;;;;;;;40.45;25.63;;;;;;;-0.35;100.00;102106.19;5018071;28;20573;-91
2021/01/15 04:26:36;;;;;;;41.78;26.13;;;;;;;-0.43;100.00;102114.41;5023727;28;20587;-90
2021/01/15 04:29:07;;;;;;;40.85;26.67;;;;;;;-0.47;100.00;102112.81;5044151;28;20045;-91
2021/01/15 04:31:33;;;;;;;40.80;27.10;;;;;;;-0.42;100.00;102115.28;5028671;28;20045;-90
2021/01/15 04:34:01;;;;;;;47.30;27.85;;;;;;;-0.46;100.00;102122.44;5043614;28;20048;-90
2021/01/15 04:36:27;;;;;;;43.20;27.92;;;;;;;-0.39;100.00;102129.19;5023097;28;20041;-91
2021/01/15 04:38:54;;;;;;;44.58;27.90;;;;;;;-0.36;100.00;102125.56;5033423;28;20443;-90
2021/01/15 04:41:22;;;;;;;43.25;27.63;;;;;;;-0.39;100.00;102126.56;5032982;28;20044;-91
2021/01/15 04:43:56;;;;;;;43.13;28.35;;;;;;;-0.38;100.00;102133.53;5009965;28;20094;-91
2021/01/15 04:46:25;;;;;;;41.92;26.20;;;;;;;-0.43;100.00;102130.25;5029514;28;20077;-91
2021/01/15 04:48:53;;;;;;;44.85;27.77;;;;;;;-0.42;100.00;102131.09;5053865;28;20473;-91
2021/01/15 04:51:26;;;;;;;44.88;27.90;;;;;;;-0.44;100.00;102135.56;5020061;28;20038;-90
2021/01/15 04:54:04;;;;;;;43.35;26.58;;;;;;;-0.50;100.00;102134.03;5026155;28;20490;-91
2021/01/15 04:56:49;;;;;;;47.37;29.17;;;;;;;-0.54;100.00;102135.94;5008609;28;20057;-90
2021/01/15 04:59:16;;;;;;;45.08;27.63;;;;;;;-0.58;100.00;102138.72;5026644;28;20077;-89
2021/01/15 05:01:47;;;;;;;41.33;27.23;;;;;;;-0.60;100.00;102146.72;5028899;28;20124;-90
2021/01/15 05:04:17;;;;;;;44.63;28.20;;;;;;;-0.56;100.00;102155.38;5025716;28;20371;-89
2021/01/15 05:06:44;;;;;;;45.45;30.25;;;;;;;-0.50;100.00;102150.69;5033569;28;20041;-92
2021/01/15 05:09:22;;;;;;;50.25;28.02;;;;;;;-0.57;100.00;102156.28;5016708;28;20045;-89
2021/01/15 05:11:49;;;;;;;44.03;28.27;;;;;;;-0.59;100.00;102160.75;5013795;28;20108;-89
2021/01/15 05:14:16;;;;;;;47.38;30.17;;;;;;;-0.60;100.00;102153.78;5028487;28;20040;-90
2021/01/15 05:16:46;;;;;;;49.30;30.10;;;;;;;-0.58;100.00;102154.56;5028580;28;20049;-92
2021/01/15 05:19:14;;;;;;;46.60;29.75;;;;;;;-0.60;100.00;102165.19;5023034;28;20080;-90
2021/01/15 05:21:41;;;;;;;45.22;27.83;;;;;;;-0.59;100.00;102166.03;5038667;28;20037;-91
2021/01/15 05:24:16;;;;;;;51.08;30.30;;;;;;;-0.62;100.00;102164.38;5045307;28;20059;-90
2021/01/15 05:26:45;;;;;;;41.88;28.02;;;;;;;-0.63;100.00;102175.84;5025382;28;20099;-91
2021/01/15 05:29:17;;;;;;;46.35;29.92;;;;;;;-0.55;100.00;102167.63;5006264;28;20041;-90
2021/01/15 05:31:53;;;;;;;46.45;26.73;;;;;;;-0.60;100.00;102172.22;5003752;28;20161;-90
2021/01/15 05:34:20;;;;;;;45.65;28.20;;;;;;;-0.62;100.00;102180.19;4987832;28;20042;-89
2021/01/15 05:36:47;;;;;;;41.53;26.17;;;;;;;-0.56;100.00;102181.72;5006180;28;20538;-90
2021/01/15 05:39:25;;;;;;;41.72;25.25;;;;;;;-0.68;100.00;102177.78;4986933;28;20041;-91
2021/01/15 05:41:59;;;;;;;43.50;27.50;;;;;;;-0.60;100.00;102178.38;5003648;28;20030;-90
2021/01/15 05:44:31;;;;;;;42.30;26.23;;;;;;;-0.69;100.00;102184.84;5001711;28;20056;-90
2021/01/15 05:46:59;;;;;;;44.75;28.13;;;;;;;-0.62;100.00;102181.97;4986989;28;20129;-89
2021/01/15 05:49:25;;;;;;;46.05;28.35;;;;;;;-0.62;100.00;102188.09;4981499;28;20038;-89
2021/01/15 05:52:07;;;;;;;47.25;27.10;;;;;;;-0.61;100.00;102183.69;4983353;28;20048;-89
2021/01/15 05:54:34;;;;;;;47.15;29.05;;;;;;;-0.57;100.00;102190.56;4977279;28;20054;-89
2021/01/15 05:57:05;;;;;;;43.40;29.20;;;;;;;-0.58;100.00;102184.41;5018610;28;20088;-89
2021/01/15 05:59:36;;;;;;;52.95;31.73;;;;;;;-0.57;100.00;102185.31;5028751;28;20520;-89
2021/01/15 06:02:06;;;;;;;46.47;29.08;;;;;;;-0.65;100.00;102192.63;5025117;28;20107;-91
2021/01/15 06:04:31;;;;;;;45.63;28.38;;;;;;;-0.63;100.00;102196.06;5036555;28;20497;-90
2021/01/15 06:06:57;;;;;;;47.45;29.42;;;;;;;-0.61;100.00;102194.22;5039413;28;20052;-89
2021/01/15 06:09:23;;;;;;;48.95;29.52;;;;;;;-0.60;100.00;102191.53;5028989;28;20045;-89
2021/01/15 06:11:51;;;;;;;48.65;28.55;;;;;;;-0.61;100.00;102194.22;5026449;28;20051;-90
2021/01/15 06:14:17;;;;;;;47.53;28.33;;;;;;;-0.60;100.00;102191.53;5026631;28;20033;-90
2021/01/15 06:16:43;;;;;;;45.70;28.67;;;;;;;-0.57;100.00;102193.22;5030087;28;20041;-88
2021/01/15 06:19:09;;;;;;;44.60;28.85;;;;;;;-0.61;100.00;102196.88;5028488;28;20474;-89
2021/01/15 06:21:35;;;;;;;47.78;28.77;;;;;;;-0.73;100.00;102196.41;5047919;28;20124;-89
2021/01/15 06:24:07;;;;;;;47.92;29.67;;;;;;;-0.61;100.00;102197.72;5025193;28;20037;-89
2021/01/15 06:26:38;;;;;;;47.30;28.15;;;;;;;-0.63;100.00;102201.31;5029165;28;20401;-88
2021/01/15 06:29:09;;;;;;;45.45;27.52;;;;;;;-0.68;100.00;102194.47;5029087;28;20038;-89
2021/01/15 06:31:50;;;;;;;45.15;26.35;;;;;;;-0.65;100.00;102198.75;5020824;28;20116;-89
2021/01/15 06:34:19;;;;;;;46.28;27.08;;;;;;;-0.66;100.00;102201.44;5025737;28;20034;-88
2021/01/15 06:36:54;;;;;;;47.85;28.70;;;;;;;-0.58;100.00;102194.97;5032807;28;20076;-89
2021/01/15 06:39:26;;;;;;;48.38;26.60;;;;;;;-0.61;100.00;102199.50;5030808;28;20136;-88
2021/01/15 06:42:07;;;;;;;45.85;26.83;;;;;;;-0.68;100.00;102205.00;5031537;28;20048;-90
2021/01/15 06:44:33;;;;;;;47.97;28.08;;;;;;;-0.61;100.00;102204.78;5028446;28;20043;-90
2021/01/15 06:47:02;;;;;;;45.58;26.48;;;;;;;-0.61;100.00;102210.91;5041070;28;20464;-90
2021/01/15 06:49:31;;;;;;;51.33;30.20;;;;;;;-0.58;100.00;102204.66;5033441;28;20504;-89
2021/01/15 06:51:59;;;;;;;48.20;29.00;;;;;;;-0.63;100.00;102207.47;5025291;28;20065;-90
2021/01/15 06:54:27;;;;;;;47.50;30.23;;;;;;;-0.62;100.00;102208.34;5035565;28;20048;-89
2021/01/15 06:57:10;;;;;;;50.50;29.85;;;;;;;-0.59;100.00;102214.34;5032029;28;20052;-90
2021/01/15 06:59:41;;;;;;;52.83;29.65;;;;;;;-0.64;100.00;102216.28;5012251;28;20140;-89
2021/01/15 07:02:16;;;;;;;54.17;29.63;;;;;;;-0.60;100.00;102227.59;5026830;28;20180;-89
2021/01/15 07:04:59;;;;;;;49.08;29.60;;;;;;;-0.62;100.00;102222.38;5030112;28;20045;-90
2021/01/15 07:07:30;;;;;;;57.15;32.08;;;;;;;-0.65;100.00;102237.47;5029956;28;20072;-89
2021/01/15 07:09:59;;;;;;;54.15;29.83;;;;;;;-0.59;100.00;102238.09;5027905;28;20065;-90
2021/01/15 07:12:24;;;;;;;52.83;32.75;;;;;;;-0.52;100.00;102241.34;5028325;28;20037;-89
2021/01/15 07:14:50;;;;;;;55.67;32.00;;;;;;;-0.53;100.00;102245.75;5034577;28;20172;-91
2021/01/15 07:17:27;;;;;;;56.72;33.17;;;;;;;-0.52;100.00;102252.78;5030719;28;20048;-91
2021/01/15 07:20:04;;;;;;;56.92;32.42;;;;;;;-0.59;100.00;102250.41;5029174;28;20102;-89
2021/01/15 07:22:36;;;;;;;56.78;32.58;;;;;;;-0.59;100.00;102251.25;4995295;28;20053;-91
2021/01/15 07:25:05;;;;;;;57.97;35.03;;;;;;;-0.50;100.00;102255.34;5031048;28;20053;-89
2021/01/15 07:27:30;;;;;;;57.73;31.67;;;;;;;-0.57;100.00;102248.59;5030622;28;20076;-90
2021/01/15 07:29:57;;;;;;;61.28;37.20;;;;;;;-0.54;100.00;102253.75;5030719;28;20502;-89
2021/01/15 07:32:25;;;;;;;62.40;33.97;;;;;;;-0.61;100.00;102261.00;5029350;28;20037;-89
2021/01/15 07:34:57;;;;;;;56.83;32.90;;;;;;;-0.59;100.00;102267.09;5035293;28;20045;-90
2021/01/15 07:37:28;;;;;;;57.03;32.00;;;;;;;-0.61;100.00;102260.16;5026905;28;20045;-89
2021/01/15 07:40:09;;;;;;;51.53;30.30;;;;;;;-0.61;100.00;102265.41;5012914;28;20045;-88
2021/01/15 07:42:44;;;;;;;56.45;30.70;;;;;;;-0.60;100.00;102272.44;5027132;28;20120;-87
2021/01/15 07:45:32;;;;;;;53.85;30.25;;;;;;;-0.61;100.00;102271.53;5011472;28;20120;-88
2021/01/15 07:47:57;;;;;;;56.80;30.77;;;;;;;-0.56;100.00;102277.50;5045190;28;20704;-90
2021/01/15 07:50:50;;;;;;;52.92;29.80;;;;;;;-0.61;100.00;102275.97;5025673;28;20053;-88
2021/01/15 07:53:19;;;;;;;56.80;32.55;;;;;;;-0.53;100.00;102280.03;5021956;28;20486;-88
2021/01/15 07:55:45;;;;;;;;;;;;;;;-0.53;100.00;102276.53;5032774;28;20038;-88
2021/01/15 07:58:11;;;;;;;54.63;33.00;;;;;;;-0.58;100.00;102278.50;5029643;28;19917;-90
2021/01/15 08:00:38;;;;;;;57.58;32.60;;;;;;;-0.58;100.00;102281.97;5030622;28;20041;-88
2021/01/15 08:03:03;;;;;;;57.40;31.45;;;;;;;-0.59;100.00;102282.06;5013620;28;20042;-88
2021/01/15 08:05:29;;;;;;;60.75;33.35;;;;;;;-0.55;100.00;102283.66;5047848;28;20091;-88
2021/01/15 08:08:08;;;;;;;57.17;30.20;;;;;;;-0.48;100.00;102290.44;5031648;28;20060;-88
2021/01/15 08:10:45;;;;;;;54.92;29.70;;;;;;;-0.49;100.00;102279.03;4988512;28;20542;-89
2021/01/15 08:13:24;;;;;;;59.53;30.08;;;;;;;-0.48;100.00;102286.00;4971185;28;20074;-90
2021/01/15 08:15:50;;;;;;;59.20;32.30;;;;;;;-0.49;100.00;102289.56;4961869;28;20133;-89
2021/01/15 08:18:18;;;;;;;58.17;31.10;;;;;;;-0.51;100.00;102286.13;4979344;28;20046;-89
2021/01/15 08:20:53;;;;;;;55.10;31.55;;;;;;;-0.45;100.00;102290.31;4968136;28;20046;-89
2021/01/15 08:23:22;;;;;;;55.38;33.17;;;;;;;-0.38;100.00;102298.84;4960900;28;20069;-88
2021/01/15 08:26:20;;;;;;;53.58;29.65;;;;;;;-0.47;100.00;102289.50;4969949;28;20129;-89
2021/01/15 08:28:48;;;;;;;57.28;30.95;;;;;;;-0.43;100.00;102293.75;4976115;28;20045;-87
2021/01/15 08:31:23;;;;;;;53.90;29.30;;;;;;;-0.42;100.00;102300.75;4970959;28;20042;-90
2021/01/15 08:34:05;;;;;;;55.47;30.05;;;;;;;-0.46;100.00;102300.00;4986181;28;20050;-90
2021/01/15 08:36:30;;;;;;;53.97;32.33;;;;;;;-0.40;100.00;102304.19;5021196;28;20044;-88
2021/01/15 08:39:05;;;;;;;52.97;31.13;;;;;;;-0.40;100.00;102306.84;5026870;28;21395;-90
2021/01/15 08:41:31;;;;;;;59.83;32.72;;;;;;;-0.35;100.00;102312.78;5011775;28;20517;-90
2021/01/15 08:43:57;;;;;;;55.90;32.30;;;;;;;-0.36;100.00;102318.97;5027513;28;20033;-90
2021/01/15 08:46:24;;;;;;;55.60;30.63;;;;;;;-0.32;100.00;102320.59;5019953;28;20253;-89
2021/01/15 08:48:52;;;;;;;54.33;31.15;;;;;;;-0.34;100.00;102330.34;5025426;28;20498;-89
2021/01/15 08:51:19;;;;;;;57.22;30.42;;;;;;;-0.37;100.00;102335.75;5023513;28;20299;-88
2021/01/15 08:54:06;;;;;;;56.10;32.03;;;;;;;-0.32;100.00;102332.91;5024212;28;20041;-89
2021/01/15 08:56:35;;;;;;;54.03;31.98;;;;;;;-0.31;100.00;102334.66;5039367;28;20131;-90
2021/01/15 08:59:01;;;;;;;52.17;30.90;;;;;;;-0.31;100.00;102340.78;5038224;28;20435;-90
2021/01/15 09:01:30;;;;;;;54.95;28.35;;;;;;;-0.33;100.00;102344.41;5038638;28;20073;-88
2021/01/15 09:04:13;;;;;;;52.05;28.67;;;;;;;-0.43;100.00;102338.59;5022984;28;20107;-91
2021/01/15 09:06:40;;;;;;;54.15;29.85;;;;;;;-0.34;100.00;102351.44;5035445;28;20048;-90
2021/01/15 09:09:11;;;;;;;52.00;30.70;;;;;;;-0.34;100.00;102351.44;5041188;28;20037;-90
2021/01/15 09:11:40;;;;;;;51.72;30.75;;;;;;;-0.35;100.00;102364.69;5022053;28;20038;-89
2021/01/15 09:14:12;;;;;;;55.65;30.65;;;;;;;-0.28;100.00;102379.38;5013543;28;20049;-90
2021/01/15 09:16:40;;;;;;;55.42;29.70;;;;;;;-0.32;100.00;102383.91;5038161;28;20033;-91
2021/01/15 09:19:08;;;;;;;55.90;30.35;;;;;;;-0.34;100.00;102383.09;5015552;28;20049;-91
2021/01/15 09:21:44;;;;;;;54.60;30.30;;;;;;;-0.33;100.00;102383.97;5027088;28;20049;-90
2021/01/15 09:24:19;;;;;;;54.53;32.83;;;;;;;-0.36;100.00;102390.22;5026303;28;20543;-89
2021/01/15 09:26:46;;;;;;;56.15;32.85;;;;;;;-0.32;100.00;102390.94;5021489;28;20117;-90
2021/01/15 09:29:12;;;;;;;55.28;32.53;;;;;;;-0.31;100.00;102396.19;5043411;28;20182;-89
2021/01/15 09:31:42;;;;;;;60.00;34.88;;;;;;;-0.25;100.00;102397.75;5023574;28;20037;-92
2021/01/15 09:34:12;;;;;;;58.53;32.22;;;;;;;-0.26;100.00;102396.00;5020658;28;20045;-90
2021/01/15 09:36:47;;;;;;;63.08;34.13;;;;;;;-0.25;100.00;102403.88;5007155;28;20041;-91
2021/01/15 09:39:15;;;;;;;59.55;32.00;;;;;;;-0.27;100.00;102397.78;5025344;28;20536;-89
2021/01/15 09:41:51;;;;;;;57.30;31.13;;;;;;;-0.32;100.00;102391.81;5001541;28;20048;-90
2021/01/15 09:44:17;;;;;;;58.33;34.17;;;;;;;-0.31;100.00;102398.81;4987016;28;20035;-91
2021/01/15 09:46:45;;;;;;;58.92;33.88;;;;;;;-0.22;100.00;102407.34;4984805;28;20045;-91
2021/01/15 09:49:14;;;;;;;61.73;34.83;;;;;;;-0.22;100.00;102412.59;4958207;28;20051;-91
2021/01/15 09:52:05;;;;;;;65.87;36.17;;;;;;;-0.17;100.00;102415.91;4946267;28;20042;-91
2021/01/15 09:54:33;;;;;;;61.00;33.70;;;;;;;-0.23;100.00;102424.94;4919705;28;20747;-90
2021/01/15 09:56:59;;;;;;;60.58;33.35;;;;;;;-0.24;100.00;102420.56;4940586;28;20043;-90
2021/01/15 09:59:27;;;;;;;63.75;35.58;;;;;;;-0.24;100.00;102426.69;4946365;28;20054;-92
2021/01/15 10:01:57;;;;;;;62.53;35.13;;;;;;;-0.17;100.00;102424.72;4898712;28;20449;-92
2021/01/15 10:04:35;;;;;;;58.85;35.53;;;;;;;-0.14;100.00;102436.94;4918538;29;20041;-93
2021/01/15 10:07:00;;;;;;;61.58;35.53;;;;;;;-0.12;100.00;102430.66;4916520;28;20564;-92
2021/01/15 10:09:26;;;;;;;59.50;30.45;;;;;;;-0.11;100.00;102432.41;4909780;29;20040;-92
2021/01/15 10:11:51;;;;;;;56.40;31.42;;;;;;;-0.09;100.00;102440.25;4925053;28;20742;-91
2021/01/15 10:14:17;;;;;;;54.47;30.42;;;;;;;-0.04;100.00;102440.97;4939809;28;20499;-91
2021/01/15 10:16:49;;;;;;;58.40;33.92;;;;;;;-0.01;100.00;102440.84;4905497;29;20492;-90
2021/01/15 10:19:18;;;;;;;55.30;31.70;;;;;;;-0.06;100.00;102430.47;4912299;29;20043;-92
2021/01/15 10:21:44;;;;;;;49.67;27.70;;;;;;;-0.07;100.00;102438.44;4943369;28;20415;-91
2021/01/15 10:24:10;;;;;;;47.53;29.95;;;;;;;-0.04;100.00;102438.31;4959636;28;20034;-91
2021/01/15 10:26:37;;;;;;;49.65;30.23;;;;;;;0.03;100.00;102436.31;4968435;28;20677;-90
2021/01/15 10:29:06;;;;;;;49.05;27.33;;;;;;;0.01;100.00;102440.81;4970540;28;20036;-91
2021/01/15 10:31:54;;;;;;;46.35;27.80;;;;;;;0.05;100.00;102445.03;4961595;28;20499;-91
2021/01/15 10:34:21;;;;;;;45.53;25.77;;;;;;;0.01;100.00;102440.81;4985808;28;20038;-90
2021/01/15 10:36:47;;;;;;;50.92;28.25;;;;;;;-0.03;100.00;102458.50;5038107;28;20045;-92
2021/01/15 10:39:22;;;;;;;45.28;25.98;;;;;;;0.02;100.00;102453.94;5041166;28;20482;-92
2021/01/15 10:41:51;;;;;;;47.42;28.33;;;;;;;0.07;100.00;102449.34;5017949;28;20055;-91
2021/01/15 10:44:20;;;;;;;47.25;27.40;;;;;;;0.04;100.00;102453.88;5024412;28;20395;-92
2021/01/15 10:46:52;;;;;;;43.45;25.67;;;;;;;0.05;100.00;102456.47;5015492;28;20045;-91
2021/01/15 10:49:20;;;;;;;42.83;26.55;;;;;;;0.02;100.00;102453.94;5010397;28;20033;-91
2021/01/15 10:51:47;;;;;;;41.28;25.30;;;;;;;0.03;100.00;102452.16;5028568;28;20069;-91
2021/01/15 10:54:13;;;;;;;43.97;24.90;;;;;;;0.02;100.00;102458.34;5029151;28;20048;-91
2021/01/15 10:56:43;;;;;;;38.97;23.00;;;;;;;0.06;100.00;102445.00;5052021;28;20457;-91
2021/01/15 10:59:09;;;;;;;39.15;23.60;;;;;;;0.07;100.00;102446.72;5027987;28;20156;-90
2021/01/15 11:01:41;;;;;;;38.35;22.52;;;;;;;0.09;100.00;102442.25;5031804;28;20534;-91
2021/01/15 11:04:07;;;;;;;36.63;23.65;;;;;;;0.03;100.00;102444.22;5020901;28;20033;-91
2021/01/15 11:06:53;;;;;;;37.20;23.08;;;;;;;0.10;100.00;102445.75;5028107;28;20464;-92
2021/01/15 11:09:22;;;;;;;35.33;21.15;;;;;;;0.03;100.00;102450.41;5025901;28;20049;-91
2021/01/15 11:11:49;;;;;;;29.95;19.52;;;;;;;0.08;100.00;102448.44;5040002;28;20049;-92
2021/01/15 11:14:19;;;;;;;34.97;21.83;;;;;;;0.10;100.00;102443.09;5021521;28;20483;-92
2021/01/15 11:16:45;;;;;;;39.08;26.42;;;;;;;0.13;100.00;102451.75;5044198;28;20071;-91
2021/01/15 11:19:12;;;;;;;36.70;24.20;;;;;;;0.14;100.00;102447.34;5027799;28;20443;-90